Time;durP1;ratioP1;P1;durP2;ratioP2;P2;SDS_P1;SDS_P2;PMS_P1;PMS_P2;Temp;Humidity;BMP_temperature;BMP_pressure;BME280_temperature;BME280_humidity;BME280_pressure;Samples;Min_cycle;Max_cycle;Signal;HPM_P1;HPM_P2
2024/03/25 00:07:21;;;;;;;2.57;1.37;;;;;;;5.80;78.12;94661.72;4936790;29;20225;-89
2024/03/25 00:10:20;;;;;;;2.70;1.40;;;;;;;5.89;78.03;94664.09;4947680;29;20221;-87
2024/03/25 00:15:56;;;;;;;1.40;1.20;;;;;;;5.93;76.38;94615.22;4928117;29;20212;-87
2024/03/25 00:18:56;;;;;;;1.43;1.30;;;;;;;5.87;76.18;94611.56;4926600;29;20206;-88
2024/03/25 00:21:55;;;;;;;2.10;1.33;;;;;;;5.88;76.11;94596.09;4907726;29;20230;-86
2024/03/25 00:24:56;;;;;;;2.20;1.33;;;;;;;5.88;75.86;94590.16;4923724;29;20256;-88
2024/03/25 00:27:56;;;;;;;3.83;1.67;;;;;;;5.92;75.76;94604.22;4925533;29;20256;-87
2024/03/25 00:30:36;;;;;;;1.73;1.63;;;;;;;5.83;75.83;94606.00;4927946;29;20184;-88
2024/03/25 00:33:25;;;;;;;1.87;1.50;;;;;;;5.82;76.37;94613.84;4925192;29;20214;-89
2024/03/25 00:36:24;;;;;;;;;;;;;;;;;;;;;
2024/03/25 00:39:11;;;;;;;2.83;1.30;;;;;;;5.71;76.31;94607.38;4902692;29;20285;-86
2024/03/25 00:41:50;;;;;;;3.70;1.43;;;;;;;5.73;76.71;94614.88;4896594;29;20231;-88
2024/03/25 00:44:38;;;;;;;;;;;;;;;;;;;;;
2024/03/25 00:47:15;;;;;;;4.10;1.50;;;;;;;5.84;76.73;94630.56;4914233;29;20285;-88
2024/03/25 00:50:01;;;;;;;3.00;1.53;;;;;;;5.85;76.81;94631.38;4925165;29;20194;-87
2024/03/25 00:52:40;;;;;;;1.70;1.60;;;;;;;5.82;76.87;94629.16;4925934;29;20236;-87
2024/03/25 00:55:37;;;;;;;2.07;1.50;;;;;;;5.82;77.06;94640.16;4925413;29;20202;-87
2024/03/25 00:58:25;;;;;;;2.07;1.57;;;;;;;5.91;76.86;94638.41;4865889;29;20212;-87
2024/03/25 01:00:54;;;;;;;1.67;1.50;;;;;;;5.88;77.00;94625.94;4907949;29;20260;-87
2024/03/25 01:04:15;;;;;;;2.77;1.50;;;;;;;5.79;76.96;94637.94;4904787;29;20206;-87
2024/03/25 01:09:48;;;;;;;3.27;1.50;;;;;;;5.89;77.49;94651.34;4923694;29;20206;-87
2024/03/25 01:12:33;;;;;;;2.20;1.40;;;;;;;5.79;77.33;94644.81;4923507;29;20252;-87
2024/03/25 01:15:17;;;;;;;1.50;1.40;;;;;;;5.79;78.41;94665.25;4923507;29;20198;-88
2024/03/25 01:18:06;;;;;;;2.13;1.40;;;;;;;5.77;78.22;94662.84;4923975;29;20206;-86
2024/03/25 01:20:42;;;;;;;3.10;1.50;;;;;;;5.64;78.90;94672.06;4924003;29;20297;-86
2024/03/25 01:23:25;;;;;;;1.40;1.30;;;;;;;5.59;79.63;94694.72;4922809;29;20722;-87
2024/03/25 01:26:21;;;;;;;4.20;1.40;;;;;;;5.56;79.56;94701.00;4923649;29;20231;-87
2024/03/25 01:28:55;;;;;;;2.93;1.60;;;;;;;5.41;79.86;94705.19;4923796;29;20229;-87
2024/03/25 01:31:38;;;;;;;1.47;1.37;;;;;;;5.45;80.24;94721.75;4972129;23;20234;-87
2024/03/25 01:34:11;;;;;;;2.67;1.50;;;;;;;5.53;79.97;94714.09;4980980;28;20231;-88
2024/03/25 01:36:39;;;;;;;2.23;1.50;;;;;;;5.52;79.57;94702.28;4981245;28;20212;-87
2024/03/25 01:39:09;;;;;;;1.30;1.20;;;;;;;5.38;80.22;94715.75;4978120;28;20209;-87
2024/03/25 01:41:40;;;;;;;1.70;1.60;;;;;;;5.40;80.28;94729.13;4969924;28;20255;-87
2024/03/25 01:44:21;;;;;;;2.07;1.40;;;;;;;5.33;80.63;94721.34;4970888;28;20204;-88
2024/03/25 01:46:52;;;;;;;2.10;1.50;;;;;;;5.28;81.15;94740.66;4965534;28;20298;-88
2024/03/25 01:49:35;;;;;;;;;;;;;;;;;;;;;
2024/03/25 01:52:04;;;;;;;1.47;1.30;;;;;;;5.26;81.48;94745.94;4963132;28;20313;-86
2024/03/25 01:54:38;;;;;;;2.40;1.60;;;;;;;5.22;81.53;94750.56;4959857;28;20201;-87
2024/03/25 01:57:18;;;;;;;1.90;1.70;;;;;;;5.36;81.31;94754.19;4963254;28;20215;-86
2024/03/25 01:59:59;;;;;;;2.60;1.50;;;;;;;5.33;80.79;94739.22;4961755;28;20212;-87
2024/03/25 02:02:41;;;;;;;1.50;1.40;;;;;;;5.26;81.23;94751.03;4961314;28;20272;-87
2024/03/25 02:05:26;;;;;;;1.43;1.33;;;;;;;5.22;81.62;94754.88;4961888;28;20196;-88
2024/03/25 02:08:21;;;;;;;2.83;1.40;;;;;;;5.29;81.53;94755.00;4962526;28;20302;-86
2024/03/25 02:10:52;;;;;;;1.63;1.50;;;;;;;5.20;81.65;94749.91;4941924;28;20228;-88
2024/03/25 02:13:29;;;;;;;2.23;1.30;;;;;;;5.29;81.73;94752.47;4961609;28;20683;-87
2024/03/25 02:16:06;;;;;;;2.13;1.47;;;;;;;5.32;81.39;94727.41;4961751;28;20223;-86
2024/03/25 02:18:47;;;;;;;1.50;1.40;;;;;;;5.38;80.90;94733.63;4960899;28;20252;-88
2024/03/25 02:21:28;;;;;;;1.67;1.20;;;;;;;5.35;80.72;94709.22;4961143;28;20233;-88
2024/03/25 02:24:12;;;;;;;2.03;1.50;;;;;;;5.31;80.42;94715.59;4961028;28;20280;-87
2024/03/25 02:27:08;;;;;;;2.20;1.60;;;;;;;5.35;80.65;94705.88;4959255;28;20197;-87
2024/03/25 02:29:38;;;;;;;2.37;1.57;;;;;;;5.39;80.39;94713.00;4957197;28;20209;-86
2024/03/25 02:32:07;;;;;;;1.57;1.47;;;;;;;5.35;80.04;94698.22;4961013;28;20240;-86
2024/03/25 02:34:52;;;;;;;1.40;1.30;;;;;;;5.35;79.93;94695.66;4960375;28;20199;-87
2024/03/25 02:37:34;;;;;;;1.63;1.50;;;;;;;5.38;79.66;94685.13;4958454;28;20228;-87
2024/03/25 02:40:09;;;;;;;2.73;1.57;;;;;;;5.32;79.57;94675.56;4966724;28;20212;-86
2024/03/25 02:42:51;;;;;;;1.43;1.30;;;;;;;5.41;79.18;94675.34;4966293;28;20204;-86
2024/03/25 02:45:18;;;;;;;2.30;1.60;;;;;;;5.37;79.20;94673.31;4958892;28;20694;-86
2024/03/25 02:48:02;;;;;;;4.60;1.67;;;;;;;5.38;78.93;94668.06;4959743;28;20216;-87
2024/03/25 02:50:35;;;;;;;3.33;1.77;;;;;;;5.41;79.12;94677.13;4957610;28;20205;-85
2024/03/25 02:53:10;;;;;;;2.30;1.60;;;;;;;5.38;78.64;94665.50;4959306;28;20658;-87
2024/03/25 02:58:31;;;;;;;2.50;1.87;;;;;;;5.50;78.43;94653.16;4954602;28;20212;-86
2024/03/25 03:01:01;;;;;;;2.23;1.53;;;;;;;5.55;77.92;94640.69;4943541;28;20315;-86
2024/03/25 03:03:40;;;;;;;2.50;1.83;;;;;;;5.60;77.63;94630.72;4962948;28;20220;-86
2024/03/25 03:06:12;;;;;;;2.17;1.50;;;;;;;5.57;77.35;94625.19;4962390;28;20244;-88
2024/03/25 03:08:55;;;;;;;2.20;1.70;;;;;;;5.61;77.62;94634.09;4949328;29;20220;-88
2024/03/25 03:11:25;;;;;;;2.10;1.80;;;;;;;5.51;77.73;94642.78;4951921;28;20275;-86
2024/03/25 03:14:10;;;;;;;2.50;1.40;;;;;;;5.55;77.35;94641.47;4965541;28;20197;-86
2024/03/25 03:16:38;;;;;;;2.10;1.80;;;;;;;5.52;77.50;94631.59;4962513;28;20203;-88
2024/03/25 03:19:13;;;;;;;2.43;1.80;;;;;;;5.44;77.28;94633.38;4968084;28;20425;-89
2024/03/25 03:21:53;;;;;;;4.30;2.10;;;;;;;5.55;77.15;94636.38;4967055;28;20244;-87
2024/03/25 03:24:37;;;;;;;2.97;1.70;;;;;;;5.66;76.72;94632.63;4968351;28;20236;-88
2024/03/25 03:27:12;;;;;;;3.13;1.80;;;;;;;5.67;76.33;94618.88;4967464;28;20255;-87
2024/03/25 03:29:49;;;;;;;3.77;1.70;;;;;;;5.71;76.28;94614.25;4967422;28;20197;-87
2024/03/25 03:32:19;;;;;;;3.00;1.87;;;;;;;5.60;76.50;94615.41;4966093;28;20240;-88
2024/03/25 03:34:45;;;;;;;3.47;2.00;;;;;;;5.56;76.46;94619.28;4962599;28;20767;-87
2024/03/25 03:37:15;;;;;;;2.60;1.70;;;;;;;5.62;76.58;94635.69;4967925;28;20235;-86
2024/03/25 03:39:58;;;;;;;1.90;1.80;;;;;;;5.58;76.18;94608.91;4960839;28;20288;-86
2024/03/25 03:42:34;;;;;;;2.90;1.50;;;;;;;5.43;76.46;94612.19;4960919;28;20225;-86
2024/03/25 03:45:14;;;;;;;2.53;1.60;;;;;;;5.36;76.42;94630.91;4962149;28;20207;-86
2024/03/25 03:47:53;;;;;;;2.53;1.70;;;;;;;5.36;76.64;94636.81;4956453;29;20659;-87
2024/03/25 03:50:39;;;;;;;2.43;1.70;;;;;;;5.31;76.71;94628.84;4960908;28;20260;-88
2024/03/25 03:53:29;;;;;;;2.00;1.60;;;;;;;5.32;76.85;94644.94;4961220;28;20185;-87
2024/03/25 03:56:09;;;;;;;1.90;1.50;;;;;;;5.28;77.01;94644.47;4929960;28;20241;-86
2024/03/25 03:58:36;;;;;;;1.87;1.43;;;;;;;5.30;76.99;94650.22;4959564;28;20540;-86
2024/03/25 04:01:21;;;;;;;1.70;1.60;;;;;;;5.17;77.37;94660.97;4960785;28;20255;-86
2024/03/25 04:04:12;;;;;;;1.70;1.60;;;;;;;5.25;77.27;94670.34;4958020;28;20220;-85
2024/03/25 04:06:40;;;;;;;3.47;1.70;;;;;;;5.24;77.29;94652.63;4947114;28;20632;-87
2024/03/25 04:09:21;;;;;;;1.80;1.50;;;;;;;5.17;77.37;94658.41;4959857;28;20229;-87
2024/03/25 04:11:54;;;;;;;3.37;1.60;;;;;;;5.28;76.63;94644.47;4959178;28;20233;-86
2024/03/25 04:14:24;;;;;;;3.37;2.10;;;;;;;5.30;76.68;94640.00;4961078;28;20208;-86
2024/03/25 04:17:02;;;;;;;2.07;1.47;;;;;;;5.26;76.88;94643.06;4961188;28;20201;-86
2024/03/25 04:19:39;;;;;;;1.80;1.47;;;;;;;5.31;76.88;94646.72;4955819;28;20207;-87
2024/03/25 04:22:13;;;;;;;3.23;1.50;;;;;;;5.35;76.62;94640.31;4960056;28;20236;-87
2024/03/25 04:27:36;;;;;;;2.33;1.70;;;;;;;5.32;76.69;94644.94;4960027;28;20260;-86
2024/03/25 04:30:14;;;;;;;1.67;1.53;;;;;;;5.22;77.00;94651.03;4962247;28;20201;-86
2024/03/25 04:33:01;;;;;;;3.13;1.60;;;;;;;5.10;77.46;94665.13;4967608;28;20223;-89
2024/03/25 04:35:29;;;;;;;1.70;1.60;;;;;;;5.05;77.89;94676.78;4958075;28;20205;-86
